To NAV CANADA Home Page Login to a new session Search on AWWS site Feedback and Comments Disclaimer Vers la page française équivalente Tips FAQ What's new on the site To the Forecasts and Observations / NOTAM section To "File a Flight Plan" website Publications and other links Update of the User's profile FIC Telephone Numbers My Weather Data Folder Route Weather Data Regional Weather Data Local Weather Data To the Forecasts and Observations / NOTAM section
Request Generated 07/02/2015 at 12:31:17 UTC . Weather information available at that time is displayed.

METAR/TAF

VANCOUVER/VANCOUVER INTL/BC    

METAR CYVR 021200Z 30013G19KT 30SM FEW015 18/15 A2999 RMK SC1 SLP156
DENSITY ALT 300FT=
METAR CYVR 021100Z 30013KT 30SM FEW015 19/15 A2998 RMK SC1 SLP153
DENSITY ALT 300FT=
METAR CYVR 021000Z 30012KT 30SM FEW080 19/16 A2997 RMK AC1 SLP150
DENSITY ALT 400FT=

TAF CYVR 021138Z 0212/0318 30010G20KT P6SM SKC
RMK NXT FCST BY 021500Z=
Your time UTC time
Weather data provided by Environment Canada and NAV CANADA